Saskatoon John G. Diefenbaker International Airport
CYXE : now visible

Airfield :











YOU CAN JOIN US ON...

 
LOGIN :

Register | Disclaimer

   EN    FR    IT 

 









Legend :    VFR   Marginal VFR   IFR   Intensive IFR   Very Intensive IFR
Visi :
Ceiling :
>= 8 km
>= 3000ft
5 to 8 km
1000 to 3000 ft
1500m to 5 km
500 to 1000 ft
800 to 1500m
200 to 500 ft
< 800m
< 200 ft
Symbols :   Thunderstorms  Fog  Heavy snow  Heavy precipitations  Wind > 20 kt






- Airport Elevation : 1653 ft
- IATA code : YXE


CYXE - Saskatoon John G. Diefenbaker International

CURRENT METAR :
  • 101900Z 33011G17KT 15SM FEW060 FEW250 12/M07 A2952 RMK CU1CI1 SLP015 DENSITY ALT 2200FT

EXPIRED METARs :
  • 101800Z 29008G15KT 270V330 15SM FEW260 10/M06 A2953 RMK CI1 SLP018 DENSITY ALT 1900FT
  • 101700Z 25011G18KT 15SM FEW260 07/M05 A2953 RMK CI1 SLP018

TAF TAF CYXE
Valid from the 10 at 18:00 until the 11 at 18:00 UTC


101739Z 1018/1118 25012G22KT P6SM FEW260
FM102100 32012KT P6SM SCT080 BKN150
BECMG 1022/1024 01012KT
FM110300 01015G25KT P6SM SCT050 SCT100
FM110600 01015G25KT P6SM SCT012
TEMPO 1106/1109 BKN012
FM110900 36015G25KT 3SM -SN BKN008
TEMPO 1109/1114 P6SM -SN BKN012
FM111400 01020G30KT 5SM -RASN BKN015
TEMPO 1114/1118 P6SM -RA BKN025 RMK NXT FCST BY 110000Z
CZWG FIR / North America



MET'MAP, your aeronautical weather chart ! - Copyright ORBIFLY December 2007 - Disclaimer

ORBIFLY MET'MAP TEAM :

Programming & Development : Alexandra Zaïnal
Concept & original design : Baudouin d'Aumeries
Assistance for programming : Marc-Olivier Méhu
Technical & hardware support : Manuel Goepfert

Contact : metmap@orbifly.com




SOURCES & CREDITS :

   NOAA       Earth
Advisory